Terminal Aerodrome Forecast
Issued by NWS Wilmington, OH

Current Version | Previous Version | Text Only | Print | Product List | Glossary Off
Versions: 1 2 3 4 5 6 7 8 9 10 11 12 13 14 15 16 17

000
FTUS41 KILN 230727 AAA
TAFDAY
TAF AMD
KDAY 230727Z 2307/2406 19012KT 4SM BR VCSH OVC009
      TEMPO 2307/2310 1SM BR OVC003
     FM231100 22014G20KT 5SM SHRA BR OVC015
      TEMPO 2313/2317 3SM +SHRA BKN010 OVC070
     FM232100 23009KT P6SM -SHRA OVC020
     FM240100 30009KT P6SM BKN010=

USA.gov is the U.S. government's official web portal to all federal, state and local government web resources and services.